sensor_id;sensor_type;location;lat;lon;timestamp;temperature;humidity
6662;DHT22;3367;48.714;8.994;2023-07-31T00:00:04;14.80;99.90
6662;DHT22;3367;48.714;8.994;2023-07-31T00:02:31;14.80;99.90
6662;DHT22;3367;48.714;8.994;2023-07-31T00:04:58;14.80;99.90
6662;DHT22;3367;48.714;8.994;2023-07-31T00:07:26;14.70;99.90
6662;DHT22;3367;48.714;8.994;2023-07-31T00:09:52;14.70;99.90
6662;DHT22;3367;48.714;8.994;2023-07-31T00:12:19;14.60;99.90
6662;DHT22;3367;48.714;8.994;2023-07-31T00:14:46;14.60;99.90
6662;DHT22;3367;48.714;8.994;2023-07-31T00:17:13;14.50;99.90
6662;DHT22;3367;48.714;8.994;2023-07-31T00:19:40;14.40;99.90
6662;DHT22;3367;48.714;8.994;2023-07-31T00:22:06;14.40;1.00
6662;DHT22;3367;48.714;8.994;2023-07-31T00:24:34;14.30;1.00
6662;DHT22;3367;48.714;8.994;2023-07-31T00:27:01;14.30;1.00
6662;DHT22;3367;48.714;8.994;2023-07-31T00:29:28;14.20;1.00
6662;DHT22;3367;48.714;8.994;2023-07-31T00:31:55;14.20;1.00
6662;DHT22;3367;48.714;8.994;2023-07-31T00:34:21;14.10;1.00
6662;DHT22;3367;48.714;8.994;2023-07-31T00:36:48;14.00;1.00
6662;DHT22;3367;48.714;8.994;2023-07-31T00:39:15;14.00;1.00
6662;DHT22;3367;48.714;8.994;2023-07-31T00:41:43;14.00;1.00
6662;DHT22;3367;48.714;8.994;2023-07-31T00:44:10;13.90;1.00
6662;DHT22;3367;48.714;8.994;2023-07-31T00:46:37;14.00;1.00
6662;DHT22;3367;48.714;8.994;2023-07-31T00:49:04;13.90;1.00
6662;DHT22;3367;48.714;8.994;2023-07-31T00:51:32;13.90;1.00
6662;DHT22;3367;48.714;8.994;2023-07-31T00:53:58;13.90;1.00
6662;DHT22;3367;48.714;8.994;2023-07-31T00:56:26;13.90;1.00
6662;DHT22;3367;48.714;8.994;2023-07-31T00:58:55;13.90;1.00
6662;DHT22;3367;48.714;8.994;2023-07-31T01:01:22;13.90;1.00
6662;DHT22;3367;48.714;8.994;2023-07-31T01:03:49;13.90;1.00
6662;DHT22;3367;48.714;8.994;2023-07-31T01:06:24;13.90;1.00
6662;DHT22;3367;48.714;8.994;2023-07-31T01:09:02;13.80;1.00
6662;DHT22;3367;48.714;8.994;2023-07-31T01:11:30;13.80;18.30
6662;DHT22;3367;48.714;8.994;2023-07-31T01:13:59;13.80;1.00
6662;DHT22;3367;48.714;8.994;2023-07-31T01:16:26;13.80;1.00
6662;DHT22;3367;48.714;8.994;2023-07-31T01:18:53;13.80;13.00
6662;DHT22;3367;48.714;8.994;2023-07-31T01:21:35;13.70;11.80
6662;DHT22;3367;48.714;8.994;2023-07-31T01:24:28;13.70;78.60
6662;DHT22;3367;48.714;8.994;2023-07-31T01:27:04;13.70;99.90
6662;DHT22;3367;48.714;8.994;2023-07-31T01:29:37;13.70;99.90
6662;DHT22;3367;48.714;8.994;2023-07-31T01:32:06;13.70;78.90
6662;DHT22;3367;48.714;8.994;2023-07-31T01:34:35;13.70;99.90
6662;DHT22;3367;48.714;8.994;2023-07-31T01:37:03;13.70;99.90
6662;DHT22;3367;48.714;8.994;2023-07-31T01:39:29;13.70;99.90
6662;DHT22;3367;48.714;8.994;2023-07-31T01:41:58;13.70;99.90
6662;DHT22;3367;48.714;8.994;2023-07-31T01:44:24;13.60;99.90
6662;DHT22;3367;48.714;8.994;2023-07-31T01:46:51;13.60;99.90
6662;DHT22;3367;48.714;8.994;2023-07-31T01:49:18;13.50;99.90
6662;DHT22;3367;48.714;8.994;2023-07-31T01:51:44;13.50;99.90
6662;DHT22;3367;48.714;8.994;2023-07-31T01:54:11;13.50;99.90
6662;DHT22;3367;48.714;8.994;2023-07-31T01:56:38;13.60;99.90
6662;DHT22;3367;48.714;8.994;2023-07-31T01:59:06;13.50;99.90
6662;DHT22;3367;48.714;8.994;2023-07-31T02:01:32;13.50;99.90
6662;DHT22;3367;48.714;8.994;2023-07-31T02:03:59;13.50;99.90
6662;DHT22;3367;48.714;8.994;2023-07-31T02:06:27;13.50;99.90
6662;DHT22;3367;48.714;8.994;2023-07-31T02:08:53;13.50;99.90
6662;DHT22;3367;48.714;8.994;2023-07-31T02:11:20;13.50;99.90
6662;DHT22;3367;48.714;8.994;2023-07-31T02:13:47;13.50;99.90
6662;DHT22;3367;48.714;8.994;2023-07-31T02:16:15;13.50;99.90
6662;DHT22;3367;48.714;8.994;2023-07-31T02:18:41;13.40;99.90
6662;DHT22;3367;48.714;8.994;2023-07-31T02:21:08;13.40;99.90
6662;DHT22;3367;48.714;8.994;2023-07-31T02:23:35;13.40;1.00
6662;DHT22;3367;48.714;8.994;2023-07-31T02:26:01;13.50;99.90
6662;DHT22;3367;48.714;8.994;2023-07-31T02:28:28;13.50;99.90
6662;DHT22;3367;48.714;8.994;2023-07-31T02:30:55;13.50;99.90
6662;DHT22;3367;48.714;8.994;2023-07-31T02:33:23;13.40;99.90
6662;DHT22;3367;48.714;8.994;2023-07-31T02:35:50;13.40;99.90
6662;DHT22;3367;48.714;8.994;2023-07-31T02:38:16;13.30;99.90
6662;DHT22;3367;48.714;8.994;2023-07-31T02:40:43;13.40;99.90
6662;DHT22;3367;48.714;8.994;2023-07-31T02:43:10;13.50;99.90
6662;DHT22;3367;48.714;8.994;2023-07-31T02:45:37;13.50;99.90
6662;DHT22;3367;48.714;8.994;2023-07-31T02:48:04;13.40;99.90
6662;DHT22;3367;48.714;8.994;2023-07-31T02:50:32;13.40;99.90
6662;DHT22;3367;48.714;8.994;2023-07-31T02:52:59;13.50;99.90
6662;DHT22;3367;48.714;8.994;2023-07-31T02:55:26;13.40;99.90
6662;DHT22;3367;48.714;8.994;2023-07-31T02:57:52;13.40;99.90
6662;DHT22;3367;48.714;8.994;2023-07-31T03:00:19;13.50;99.90
6662;DHT22;3367;48.714;8.994;2023-07-31T03:02:46;13.50;99.90
6662;DHT22;3367;48.714;8.994;2023-07-31T03:05:12;13.40;99.90
6662;DHT22;3367;48.714;8.994;2023-07-31T03:07:40;13.40;99.90
6662;DHT22;3367;48.714;8.994;2023-07-31T03:10:08;13.50;99.90
6662;DHT22;3367;48.714;8.994;2023-07-31T03:12:35;13.50;38.40
6662;DHT22;3367;48.714;8.994;2023-07-31T03:15:01;13.50;37.60
6662;DHT22;3367;48.714;8.994;2023-07-31T03:17:28;13.50;1.00
6662;DHT22;3367;48.714;8.994;2023-07-31T03:19:55;13.50;1.00
6662;DHT22;3367;48.714;8.994;2023-07-31T03:22:21;13.60;48.60
6662;DHT22;3367;48.714;8.994;2023-07-31T03:24:49;13.50;32.30
6662;DHT22;3367;48.714;8.994;2023-07-31T03:27:16;13.50;62.70
6662;DHT22;3367;48.714;8.994;2023-07-31T03:29:43;13.50;96.50
6662;DHT22;3367;48.714;8.994;2023-07-31T03:32:09;13.50;62.80
6662;DHT22;3367;48.714;8.994;2023-07-31T03:34:36;13.50;99.90
6662;DHT22;3367;48.714;8.994;2023-07-31T03:37:03;13.50;99.90
6662;DHT22;3367;48.714;8.994;2023-07-31T03:39:30;13.50;28.70
6662;DHT22;3367;48.714;8.994;2023-07-31T03:41:58;13.50;99.90
6662;DHT22;3367;48.714;8.994;2023-07-31T03:44:25;13.50;88.70
6662;DHT22;3367;48.714;8.994;2023-07-31T03:46:51;13.50;8.00
6662;DHT22;3367;48.714;8.994;2023-07-31T03:49:18;13.50;1.00
6662;DHT22;3367;48.714;8.994;2023-07-31T03:51:45;13.50;1.00
6662;DHT22;3367;48.714;8.994;2023-07-31T03:54:12;13.50;1.00
6662;DHT22;3367;48.714;8.994;2023-07-31T03:56:39;13.70;1.00
6662;DHT22;3367;48.714;8.994;2023-07-31T03:59:07;13.70;1.00
6662;DHT22;3367;48.714;8.994;2023-07-31T04:01:33;13.80;1.00
6662;DHT22;3367;48.714;8.994;2023-07-31T04:04:00;13.80;1.00
6662;DHT22;3367;48.714;8.994;2023-07-31T04:06:27;13.80;1.00
6662;DHT22;3367;48.714;8.994;2023-07-31T04:08:53;13.80;1.00
6662;DHT22;3367;48.714;8.994;2023-07-31T04:11:20;13.90;1.00
6662;DHT22;3367;48.714;8.994;2023-07-31T04:13:47;13.90;1.00
6662;DHT22;3367;48.714;8.994;2023-07-31T04:16:15;14.00;1.00
6662;DHT22;3367;48.714;8.994;2023-07-31T04:18:41;14.10;1.00
6662;DHT22;3367;48.714;8.994;2023-07-31T04:21:08;14.10;1.00
6662;DHT22;3367;48.714;8.994;2023-07-31T04:23:35;14.10;1.00
6662;DHT22;3367;48.714;8.994;2023-07-31T04:26:02;14.20;1.00
6662;DHT22;3367;48.714;8.994;2023-07-31T04:28:29;14.20;1.00
6662;DHT22;3367;48.714;8.994;2023-07-31T04:30:57;14.20;1.00
6662;DHT22;3367;48.714;8.994;2023-07-31T04:33:25;14.30;1.00
6662;DHT22;3367;48.714;8.994;2023-07-31T04:35:52;14.30;1.00
6662;DHT22;3367;48.714;8.994;2023-07-31T04:38:19;14.30;1.00
6662;DHT22;3367;48.714;8.994;2023-07-31T04:40:46;14.40;1.00
6662;DHT22;3367;48.714;8.994;2023-07-31T04:43:13;14.40;1.00
6662;DHT22;3367;48.714;8.994;2023-07-31T04:45:52;14.40;1.00
6662;DHT22;3367;48.714;8.994;2023-07-31T04:48:19;14.40;1.00
6662;DHT22;3367;48.714;8.994;2023-07-31T04:50:50;14.40;1.00
6662;DHT22;3367;48.714;8.994;2023-07-31T04:53:17;14.30;1.00
6662;DHT22;3367;48.714;8.994;2023-07-31T04:55:44;14.50;1.00
6662;DHT22;3367;48.714;8.994;2023-07-31T04:58:18;14.50;1.00
6662;DHT22;3367;48.714;8.994;2023-07-31T05:00:55;14.50;1.00
6662;DHT22;3367;48.714;8.994;2023-07-31T05:03:25;14.60;1.00
6662;DHT22;3367;48.714;8.994;2023-07-31T05:05:53;14.60;1.00
6662;DHT22;3367;48.714;8.994;2023-07-31T05:08:22;14.70;1.00
6662;DHT22;3367;48.714;8.994;2023-07-31T05:10:57;14.70;99.90
6662;DHT22;3367;48.714;8.994;2023-07-31T05:13:27;14.80;99.90
6662;DHT22;3367;48.714;8.994;2023-07-31T05:15:56;14.90;99.90
6662;DHT22;3367;48.714;8.994;2023-07-31T05:18:23;14.90;99.90
6662;DHT22;3367;48.714;8.994;2023-07-31T05:20:54;15.00;99.90
6662;DHT22;3367;48.714;8.994;2023-07-31T05:23:21;15.10;99.90
6662;DHT22;3367;48.714;8.994;2023-07-31T05:25:48;15.10;99.90
6662;DHT22;3367;48.714;8.994;2023-07-31T05:28:21;15.20;99.90
6662;DHT22;3367;48.714;8.994;2023-07-31T05:30:47;15.30;99.90
6662;DHT22;3367;48.714;8.994;2023-07-31T05:33:20;15.40;99.90
6662;DHT22;3367;48.714;8.994;2023-07-31T05:35:47;15.60;99.90
6662;DHT22;3367;48.714;8.994;2023-07-31T05:38:18;15.80;81.60
6662;DHT22;3367;48.714;8.994;2023-07-31T05:40:48;16.00;22.30
6662;DHT22;3367;48.714;8.994;2023-07-31T05:43:15;16.20;4.30
6662;DHT22;3367;48.714;8.994;2023-07-31T05:45:42;16.30;1.00
6662;DHT22;3367;48.714;8.994;2023-07-31T05:48:11;16.30;1.00
6662;DHT22;3367;48.714;8.994;2023-07-31T05:50:41;16.50;1.00
6662;DHT22;3367;48.714;8.994;2023-07-31T05:53:07;16.50;1.00
6662;DHT22;3367;48.714;8.994;2023-07-31T05:55:45;16.60;1.00
6662;DHT22;3367;48.714;8.994;2023-07-31T05:58:12;16.60;1.00
6662;DHT22;3367;48.714;8.994;2023-07-31T06:00:50;16.60;1.00
6662;DHT22;3367;48.714;8.994;2023-07-31T06:03:16;16.80;1.00
6662;DHT22;3367;48.714;8.994;2023-07-31T06:05:46;16.80;1.00
6662;DHT22;3367;48.714;8.994;2023-07-31T06:08:13;16.90;1.00
6662;DHT22;3367;48.714;8.994;2023-07-31T06:10:41;16.90;1.00
6662;DHT22;3367;48.714;8.994;2023-07-31T06:13:11;17.00;1.00
6662;DHT22;3367;48.714;8.994;2023-07-31T06:15:38;17.00;1.00
6662;DHT22;3367;48.714;8.994;2023-07-31T06:18:07;17.20;1.00
6662;DHT22;3367;48.714;8.994;2023-07-31T06:20:44;17.30;1.00
6662;DHT22;3367;48.714;8.994;2023-07-31T06:23:11;17.50;1.00
6662;DHT22;3367;48.714;8.994;2023-07-31T06:25:37;17.60;1.00
6662;DHT22;3367;48.714;8.994;2023-07-31T06:28:06;17.80;1.00
6662;DHT22;3367;48.714;8.994;2023-07-31T06:30:32;17.90;1.00
6662;DHT22;3367;48.714;8.994;2023-07-31T06:33:14;17.90;1.00
6662;DHT22;3367;48.714;8.994;2023-07-31T06:35:43;18.00;1.00
6662;DHT22;3367;48.714;8.994;2023-07-31T06:38:11;18.50;1.00
6662;DHT22;3367;48.714;8.994;2023-07-31T06:40:37;18.90;1.00
6662;DHT22;3367;48.714;8.994;2023-07-31T06:43:08;19.30;1.00
6662;DHT22;3367;48.714;8.994;2023-07-31T06:45:41;19.40;1.00
6662;DHT22;3367;48.714;8.994;2023-07-31T06:48:14;19.60;1.00
6662;DHT22;3367;48.714;8.994;2023-07-31T06:50:43;20.00;1.00
6662;DHT22;3367;48.714;8.994;2023-07-31T06:53:10;20.10;1.00
6662;DHT22;3367;48.714;8.994;2023-07-31T06:55:40;19.80;1.00
6662;DHT22;3367;48.714;8.994;2023-07-31T06:58:08;19.60;1.00
6662;DHT22;3367;48.714;8.994;2023-07-31T07:00:38;19.20;1.00
6662;DHT22;3367;48.714;8.994;2023-07-31T07:03:04;19.10;1.00
6662;DHT22;3367;48.714;8.994;2023-07-31T07:05:34;19.20;1.00
6662;DHT22;3367;48.714;8.994;2023-07-31T07:08:01;19.50;1.00
6662;DHT22;3367;48.714;8.994;2023-07-31T07:10:28;19.80;1.00
6662;DHT22;3367;48.714;8.994;2023-07-31T07:12:55;20.50;1.00
6662;DHT22;3367;48.714;8.994;2023-07-31T07:15:23;20.90;1.00
6662;DHT22;3367;48.714;8.994;2023-07-31T07:17:59;21.20;1.00
6662;DHT22;3367;48.714;8.994;2023-07-31T07:20:45;21.50;1.00
6662;DHT22;3367;48.714;8.994;2023-07-31T07:23:15;21.50;1.00
6662;DHT22;3367;48.714;8.994;2023-07-31T07:25:42;21.30;1.00
6662;DHT22;3367;48.714;8.994;2023-07-31T07:28:12;21.10;1.00
6662;DHT22;3367;48.714;8.994;2023-07-31T07:30:43;20.70;1.00
6662;DHT22;3367;48.714;8.994;2023-07-31T07:33:19;20.30;1.00
6662;DHT22;3367;48.714;8.994;2023-07-31T07:35:50;20.30;1.00
6662;DHT22;3367;48.714;8.994;2023-07-31T07:38:19;20.20;1.00
6662;DHT22;3367;48.714;8.994;2023-07-31T07:40:50;20.20;1.00
6662;DHT22;3367;48.714;8.994;2023-07-31T07:43:19;20.20;1.00
6662;DHT22;3367;48.714;8.994;2023-07-31T07:45:49;20.90;1.00
6662;DHT22;3367;48.714;8.994;2023-07-31T07:48:22;21.00;1.00
6662;DHT22;3367;48.714;8.994;2023-07-31T07:50:51;21.40;1.00
6662;DHT22;3367;48.714;8.994;2023-07-31T07:53:18;22.00;1.00
6662;DHT22;3367;48.714;8.994;2023-07-31T07:55:45;22.90;1.00
6662;DHT22;3367;48.714;8.994;2023-07-31T07:58:17;23.10;1.00
6662;DHT22;3367;48.714;8.994;2023-07-31T08:00:52;23.40;1.00
6662;DHT22;3367;48.714;8.994;2023-07-31T08:03:20;23.20;1.00
6662;DHT22;3367;48.714;8.994;2023-07-31T08:05:57;23.00;1.00
6662;DHT22;3367;48.714;8.994;2023-07-31T08:08:27;22.90;1.00
6662;DHT22;3367;48.714;8.994;2023-07-31T08:10:59;22.60;1.00
6662;DHT22;3367;48.714;8.994;2023-07-31T08:13:32;22.70;1.00
6662;DHT22;3367;48.714;8.994;2023-07-31T08:16:00;22.80;1.00
6662;DHT22;3367;48.714;8.994;2023-07-31T08:18:27;23.10;1.00
6662;DHT22;3367;48.714;8.994;2023-07-31T08:20:53;22.80;1.00
6662;DHT22;3367;48.714;8.994;2023-07-31T08:23:20;22.80;1.00
6662;DHT22;3367;48.714;8.994;2023-07-31T08:25:53;23.00;1.00
6662;DHT22;3367;48.714;8.994;2023-07-31T08:28:19;23.40;1.00
6662;DHT22;3367;48.714;8.994;2023-07-31T08:30:46;23.20;1.00
6662;DHT22;3367;48.714;8.994;2023-07-31T08:33:14;22.80;1.00
6662;DHT22;3367;48.714;8.994;2023-07-31T08:35:44;22.50;1.00
6662;DHT22;3367;48.714;8.994;2023-07-31T08:38:13;22.30;1.00
6662;DHT22;3367;48.714;8.994;2023-07-31T08:40:43;22.00;1.00
6662;DHT22;3367;48.714;8.994;2023-07-31T08:43:20;21.70;1.00
6662;DHT22;3367;48.714;8.994;2023-07-31T08:45:47;21.70;1.00
6662;DHT22;3367;48.714;8.994;2023-07-31T08:48:17;21.50;1.00
6662;DHT22;3367;48.714;8.994;2023-07-31T08:50:47;21.70;1.00
6662;DHT22;3367;48.714;8.994;2023-07-31T08:53:14;21.50;1.00
6662;DHT22;3367;48.714;8.994;2023-07-31T08:55:42;21.40;1.00
6662;DHT22;3367;48.714;8.994;2023-07-31T08:58:13;21.50;1.00
6662;DHT22;3367;48.714;8.994;2023-07-31T09:00:41;21.60;1.00
6662;DHT22;3367;48.714;8.994;2023-07-31T09:03:18;22.00;1.00
6662;DHT22;3367;48.714;8.994;2023-07-31T09:05:46;22.20;1.00
6662;DHT22;3367;48.714;8.994;2023-07-31T09:08:15;22.30;1.00
6662;DHT22;3367;48.714;8.994;2023-07-31T09:10:45;22.50;1.00
6662;DHT22;3367;48.714;8.994;2023-07-31T09:13:12;22.70;1.00
6662;DHT22;3367;48.714;8.994;2023-07-31T09:15:40;22.60;1.00
6662;DHT22;3367;48.714;8.994;2023-07-31T09:18:09;22.60;1.00
6662;DHT22;3367;48.714;8.994;2023-07-31T09:20:40;22.40;1.00
6662;DHT22;3367;48.714;8.994;2023-07-31T09:23:22;22.40;1.00
6662;DHT22;3367;48.714;8.994;2023-07-31T09:25:49;22.30;1.00
6662;DHT22;3367;48.714;8.994;2023-07-31T09:28:18;22.30;1.00
6662;DHT22;3367;48.714;8.994;2023-07-31T09:30:49;22.10;1.00
6662;DHT22;3367;48.714;8.994;2023-07-31T09:33:19;22.00;1.00
6662;DHT22;3367;48.714;8.994;2023-07-31T09:35:50;21.80;1.00
6662;DHT22;3367;48.714;8.994;2023-07-31T09:38:17;22.00;1.00
6662;DHT22;3367;48.714;8.994;2023-07-31T09:40:50;22.00;1.00
6662;DHT22;3367;48.714;8.994;2023-07-31T09:43:20;22.30;1.00
6662;DHT22;3367;48.714;8.994;2023-07-31T09:45:47;22.30;1.00
6662;DHT22;3367;48.714;8.994;2023-07-31T09:48:18;22.40;1.00
6662;DHT22;3367;48.714;8.994;2023-07-31T09:50:54;22.20;1.00
6662;DHT22;3367;48.714;8.994;2023-07-31T09:53:28;22.30;1.00
6662;DHT22;3367;48.714;8.994;2023-07-31T09:55:58;22.20;1.00
6662;DHT22;3367;48.714;8.994;2023-07-31T09:58:29;22.30;1.00
6662;DHT22;3367;48.714;8.994;2023-07-31T10:00:57;22.50;1.00
6662;DHT22;3367;48.714;8.994;2023-07-31T10:03:25;22.80;1.00
6662;DHT22;3367;48.714;8.994;2023-07-31T10:06:00;22.90;1.00
6662;DHT22;3367;48.714;8.994;2023-07-31T10:08:35;23.00;1.00
6662;DHT22;3367;48.714;8.994;2023-07-31T10:11:06;23.30;1.00
6662;DHT22;3367;48.714;8.994;2023-07-31T10:13:34;23.60;1.00
6662;DHT22;3367;48.714;8.994;2023-07-31T10:16:01;23.40;1.00
6662;DHT22;3367;48.714;8.994;2023-07-31T10:18:28;23.20;1.00
6662;DHT22;3367;48.714;8.994;2023-07-31T10:21:06;23.10;1.00
6662;DHT22;3367;48.714;8.994;2023-07-31T10:23:36;23.00;1.00
6662;DHT22;3367;48.714;8.994;2023-07-31T10:26:07;23.30;1.00
6662;DHT22;3367;48.714;8.994;2023-07-31T10:28:38;23.60;1.00
6662;DHT22;3367;48.714;8.994;2023-07-31T10:31:06;23.60;1.00
6662;DHT22;3367;48.714;8.994;2023-07-31T10:33:33;23.70;1.00
6662;DHT22;3367;48.714;8.994;2023-07-31T10:36:22;23.50;1.00
6662;DHT22;3367;48.714;8.994;2023-07-31T10:38:56;23.40;1.00
6662;DHT22;3367;48.714;8.994;2023-07-31T10:41:28;23.40;1.00
6662;DHT22;3367;48.714;8.994;2023-07-31T10:44:08;23.40;1.00
6662;DHT22;3367;48.714;8.994;2023-07-31T10:46:36;23.40;1.00
6662;DHT22;3367;48.714;8.994;2023-07-31T10:49:03;23.30;1.00
6662;DHT22;3367;48.714;8.994;2023-07-31T10:51:35;23.60;1.00
6662;DHT22;3367;48.714;8.994;2023-07-31T10:54:12;23.60;1.00
6662;DHT22;3367;48.714;8.994;2023-07-31T10:56:46;23.70;1.00
6662;DHT22;3367;48.714;8.994;2023-07-31T10:59:13;23.60;1.00
6662;DHT22;3367;48.714;8.994;2023-07-31T11:01:55;23.70;1.00
6662;DHT22;3367;48.714;8.994;2023-07-31T11:04:24;23.70;1.00
6662;DHT22;3367;48.714;8.994;2023-07-31T11:07:00;23.70;1.00
6662;DHT22;3367;48.714;8.994;2023-07-31T11:09:30;23.70;1.00
6662;DHT22;3367;48.714;8.994;2023-07-31T11:12:06;23.60;1.00
6662;DHT22;3367;48.714;8.994;2023-07-31T11:14:35;23.50;1.00
6662;DHT22;3367;48.714;8.994;2023-07-31T11:17:06;23.50;1.00
6662;DHT22;3367;48.714;8.994;2023-07-31T11:19:37;23.40;1.00
6662;DHT22;3367;48.714;8.994;2023-07-31T11:22:07;23.40;1.00
6662;DHT22;3367;48.714;8.994;2023-07-31T11:24:37;23.40;1.00
6662;DHT22;3367;48.714;8.994;2023-07-31T11:27:10;23.20;1.00
6662;DHT22;3367;48.714;8.994;2023-07-31T11:29:37;23.10;1.00
6662;DHT22;3367;48.714;8.994;2023-07-31T11:32:04;23.00;1.00
6662;DHT22;3367;48.714;8.994;2023-07-31T11:34:47;23.00;1.00
6662;DHT22;3367;48.714;8.994;2023-07-31T11:37:22;22.80;1.00
6662;DHT22;3367;48.714;8.994;2023-07-31T11:39:59;22.90;1.00
6662;DHT22;3367;48.714;8.994;2023-07-31T11:42:25;23.00;1.00
6662;DHT22;3367;48.714;8.994;2023-07-31T11:44:54;22.80;1.00
6662;DHT22;3367;48.714;8.994;2023-07-31T11:47:25;22.80;1.00
6662;DHT22;3367;48.714;8.994;2023-07-31T11:49:53;22.80;1.00
6662;DHT22;3367;48.714;8.994;2023-07-31T11:52:21;22.60;1.00
6662;DHT22;3367;48.714;8.994;2023-07-31T11:54:52;22.60;1.00
6662;DHT22;3367;48.714;8.994;2023-07-31T11:57:22;22.40;1.00
6662;DHT22;3367;48.714;8.994;2023-07-31T11:59:49;22.30;1.00
6662;DHT22;3367;48.714;8.994;2023-07-31T12:02:20;22.20;1.00
6662;DHT22;3367;48.714;8.994;2023-07-31T12:04:55;22.30;1.00
6662;DHT22;3367;48.714;8.994;2023-07-31T12:07:46;22.40;1.00
6662;DHT22;3367;48.714;8.994;2023-07-31T12:10:24;22.50;1.00
6662;DHT22;3367;48.714;8.994;2023-07-31T12:13:01;22.60;1.00
6662;DHT22;3367;48.714;8.994;2023-07-31T12:15:53;22.40;1.00
6662;DHT22;3367;48.714;8.994;2023-07-31T12:18:25;22.30;1.00
6662;DHT22;3367;48.714;8.994;2023-07-31T12:20:54;22.20;1.00
6662;DHT22;3367;48.714;8.994;2023-07-31T12:23:25;22.20;1.00
6662;DHT22;3367;48.714;8.994;2023-07-31T12:26:00;22.00;1.00
6662;DHT22;3367;48.714;8.994;2023-07-31T12:28:29;21.90;1.00
6662;DHT22;3367;48.714;8.994;2023-07-31T12:30:58;22.00;1.00
6662;DHT22;3367;48.714;8.994;2023-07-31T12:33:36;22.00;1.00
6662;DHT22;3367;48.714;8.994;2023-07-31T12:36:05;22.00;1.00
6662;DHT22;3367;48.714;8.994;2023-07-31T12:38:34;22.00;1.00
6662;DHT22;3367;48.714;8.994;2023-07-31T12:41:01;22.10;1.00
6662;DHT22;3367;48.714;8.994;2023-07-31T12:43:31;22.10;1.00
6662;DHT22;3367;48.714;8.994;2023-07-31T12:46:05;22.20;1.00
6662;DHT22;3367;48.714;8.994;2023-07-31T12:48:33;22.30;1.00
6662;DHT22;3367;48.714;8.994;2023-07-31T12:51:06;22.40;1.00
6662;DHT22;3367;48.714;8.994;2023-07-31T12:53:44;22.60;1.00
6662;DHT22;3367;48.714;8.994;2023-07-31T12:56:11;23.00;1.00
6662;DHT22;3367;48.714;8.994;2023-07-31T12:58:38;22.90;1.00
6662;DHT22;3367;48.714;8.994;2023-07-31T13:01:04;23.10;1.00
6662;DHT22;3367;48.714;8.994;2023-07-31T13:03:32;23.50;1.00
6662;DHT22;3367;48.714;8.994;2023-07-31T13:05:59;23.70;1.00
6662;DHT22;3367;48.714;8.994;2023-07-31T13:08:47;23.60;1.00
6662;DHT22;3367;48.714;8.994;2023-07-31T13:11:20;23.50;1.00
6662;DHT22;3367;48.714;8.994;2023-07-31T13:13:47;23.50;1.00
6662;DHT22;3367;48.714;8.994;2023-07-31T13:16:14;23.50;1.00
6662;DHT22;3367;48.714;8.994;2023-07-31T13:18:41;23.60;1.00
6662;DHT22;3367;48.714;8.994;2023-07-31T13:21:08;23.60;1.00
6662;DHT22;3367;48.714;8.994;2023-07-31T13:23:41;23.60;1.00
6662;DHT22;3367;48.714;8.994;2023-07-31T13:26:15;23.40;1.00
6662;DHT22;3367;48.714;8.994;2023-07-31T13:28:48;23.70;1.00
6662;DHT22;3367;48.714;8.994;2023-07-31T13:31:14;23.80;1.00
6662;DHT22;3367;48.714;8.994;2023-07-31T13:33:44;24.00;1.00
6662;DHT22;3367;48.714;8.994;2023-07-31T13:36:16;24.30;1.00
6662;DHT22;3367;48.714;8.994;2023-07-31T13:38:43;24.50;1.00
6662;DHT22;3367;48.714;8.994;2023-07-31T13:41:19;24.40;1.00
6662;DHT22;3367;48.714;8.994;2023-07-31T13:43:49;24.30;1.00
6662;DHT22;3367;48.714;8.994;2023-07-31T13:46:19;24.20;1.00
6662;DHT22;3367;48.714;8.994;2023-07-31T13:48:48;23.90;1.00
6662;DHT22;3367;48.714;8.994;2023-07-31T13:51:18;23.90;1.00
6662;DHT22;3367;48.714;8.994;2023-07-31T13:53:48;23.90;1.00
6662;DHT22;3367;48.714;8.994;2023-07-31T13:56:15;23.80;1.00
6662;DHT22;3367;48.714;8.994;2023-07-31T13:58:43;23.90;1.00
6662;DHT22;3367;48.714;8.994;2023-07-31T14:01:16;23.90;1.00
6662;DHT22;3367;48.714;8.994;2023-07-31T14:03:46;23.90;1.00
6662;DHT22;3367;48.714;8.994;2023-07-31T14:06:19;23.80;1.00
6662;DHT22;3367;48.714;8.994;2023-07-31T14:08:49;23.60;1.00
6662;DHT22;3367;48.714;8.994;2023-07-31T14:11:15;23.60;1.00
6662;DHT22;3367;48.714;8.994;2023-07-31T14:13:46;23.40;1.00
6662;DHT22;3367;48.714;8.994;2023-07-31T14:16:16;23.40;1.00
6662;DHT22;3367;48.714;8.994;2023-07-31T14:18:52;23.50;1.00
6662;DHT22;3367;48.714;8.994;2023-07-31T14:21:20;23.40;1.00
6662;DHT22;3367;48.714;8.994;2023-07-31T14:23:47;23.60;1.00
6662;DHT22;3367;48.714;8.994;2023-07-31T14:26:17;23.70;1.00
6662;DHT22;3367;48.714;8.994;2023-07-31T14:28:43;23.60;1.00
6662;DHT22;3367;48.714;8.994;2023-07-31T14:31:12;23.80;1.00
6662;DHT22;3367;48.714;8.994;2023-07-31T14:33:47;23.60;1.00
6662;DHT22;3367;48.714;8.994;2023-07-31T14:36:22;23.80;1.00
6662;DHT22;3367;48.714;8.994;2023-07-31T14:38:52;23.80;1.00
6662;DHT22;3367;48.714;8.994;2023-07-31T14:41:22;23.80;1.00
6662;DHT22;3367;48.714;8.994;2023-07-31T14:43:52;23.80;1.00
6662;DHT22;3367;48.714;8.994;2023-07-31T14:46:20;23.90;1.00
6662;DHT22;3367;48.714;8.994;2023-07-31T14:48:47;23.80;1.00
6662;DHT22;3367;48.714;8.994;2023-07-31T14:51:20;23.80;1.00
6662;DHT22;3367;48.714;8.994;2023-07-31T14:53:47;23.70;1.00
6662;DHT22;3367;48.714;8.994;2023-07-31T14:56:22;23.40;1.00
6662;DHT22;3367;48.714;8.994;2023-07-31T14:58:49;23.50;1.00
6662;DHT22;3367;48.714;8.994;2023-07-31T15:01:16;23.40;1.00
6662;DHT22;3367;48.714;8.994;2023-07-31T15:03:44;23.50;1.00
6662;DHT22;3367;48.714;8.994;2023-07-31T15:06:14;23.40;1.00
6662;DHT22;3367;48.714;8.994;2023-07-31T15:08:44;23.10;1.00
6662;DHT22;3367;48.714;8.994;2023-07-31T15:11:11;23.10;1.00
6662;DHT22;3367;48.714;8.994;2023-07-31T15:13:44;23.10;1.00
6662;DHT22;3367;48.714;8.994;2023-07-31T15:16:11;22.90;1.00
6662;DHT22;3367;48.714;8.994;2023-07-31T15:18:38;23.00;1.00
6662;DHT22;3367;48.714;8.994;2023-07-31T15:21:06;23.10;1.00
6662;DHT22;3367;48.714;8.994;2023-07-31T15:23:35;23.30;1.00
6662;DHT22;3367;48.714;8.994;2023-07-31T15:26:04;23.40;1.00
6662;DHT22;3367;48.714;8.994;2023-07-31T15:28:32;23.50;1.00
6662;DHT22;3367;48.714;8.994;2023-07-31T15:31:03;23.50;1.00
6662;DHT22;3367;48.714;8.994;2023-07-31T15:33:29;23.60;1.00
6662;DHT22;3367;48.714;8.994;2023-07-31T15:35:56;23.60;1.00
6662;DHT22;3367;48.714;8.994;2023-07-31T15:38:25;23.60;1.00
6662;DHT22;3367;48.714;8.994;2023-07-31T15:40:52;23.40;1.00
6662;DHT22;3367;48.714;8.994;2023-07-31T15:43:30;23.50;1.00
6662;DHT22;3367;48.714;8.994;2023-07-31T15:45:58;23.40;1.00
6662;DHT22;3367;48.714;8.994;2023-07-31T15:48:24;23.40;1.00
6662;DHT22;3367;48.714;8.994;2023-07-31T15:50:51;23.40;1.00
6662;DHT22;3367;48.714;8.994;2023-07-31T15:53:18;23.20;1.00
6662;DHT22;3367;48.714;8.994;2023-07-31T15:55:46;23.00;1.00
6662;DHT22;3367;48.714;8.994;2023-07-31T15:58:13;23.00;1.00
6662;DHT22;3367;48.714;8.994;2023-07-31T16:00:45;22.90;1.00
6662;DHT22;3367;48.714;8.994;2023-07-31T16:03:14;23.00;1.00
6662;DHT22;3367;48.714;8.994;2023-07-31T16:05:41;23.10;1.00
6662;DHT22;3367;48.714;8.994;2023-07-31T16:08:08;23.10;1.00
6662;DHT22;3367;48.714;8.994;2023-07-31T16:10:36;23.00;1.00
6662;DHT22;3367;48.714;8.994;2023-07-31T16:13:07;22.90;1.00
6662;DHT22;3367;48.714;8.994;2023-07-31T16:15:34;22.90;1.00
6662;DHT22;3367;48.714;8.994;2023-07-31T16:18:02;22.90;1.00
6662;DHT22;3367;48.714;8.994;2023-07-31T16:20:29;22.80;1.00
6662;DHT22;3367;48.714;8.994;2023-07-31T16:23:02;22.80;1.00
6662;DHT22;3367;48.714;8.994;2023-07-31T16:25:30;22.60;1.00
6662;DHT22;3367;48.714;8.994;2023-07-31T16:27:56;22.60;1.00